sensor_id;sensor_type;location;lat;lon;timestamp;temperature;humidity
28761;DHT22;15917;50.014;8.352;2023-03-14T00:01:08;10.70;99.90
28761;DHT22;15917;50.014;8.352;2023-03-14T00:03:34;10.70;99.90
28761;DHT22;15917;50.014;8.352;2023-03-14T00:06:03;10.80;99.90
28761;DHT22;15917;50.014;8.352;2023-03-14T00:08:29;10.80;99.90
28761;DHT22;15917;50.014;8.352;2023-03-14T00:10:55;10.80;99.90
28761;DHT22;15917;50.014;8.352;2023-03-14T00:13:20;10.80;99.90
28761;DHT22;15917;50.014;8.352;2023-03-14T00:15:46;10.80;99.90
28761;DHT22;15917;50.014;8.352;2023-03-14T00:18:12;10.80;99.90
28761;DHT22;15917;50.014;8.352;2023-03-14T00:20:37;10.80;99.90
28761;DHT22;15917;50.014;8.352;2023-03-14T00:23:03;10.80;99.90
28761;DHT22;15917;50.014;8.352;2023-03-14T00:25:28;10.80;99.90
28761;DHT22;15917;50.014;8.352;2023-03-14T00:27:54;10.80;99.90
28761;DHT22;15917;50.014;8.352;2023-03-14T00:30:19;10.80;99.90
28761;DHT22;15917;50.014;8.352;2023-03-14T00:32:45;10.90;99.90
28761;DHT22;15917;50.014;8.352;2023-03-14T00:35:11;10.90;99.90
28761;DHT22;15917;50.014;8.352;2023-03-14T00:37:37;10.80;99.90
28761;DHT22;15917;50.014;8.352;2023-03-14T00:40:05;10.80;99.90
28761;DHT22;15917;50.014;8.352;2023-03-14T00:42:32;10.80;99.90
28761;DHT22;15917;50.014;8.352;2023-03-14T00:44:58;10.80;99.90
28761;DHT22;15917;50.014;8.352;2023-03-14T00:47:23;10.80;99.90
28761;DHT22;15917;50.014;8.352;2023-03-14T00:49:49;10.80;99.90
28761;DHT22;15917;50.014;8.352;2023-03-14T00:52:15;10.80;99.90
28761;DHT22;15917;50.014;8.352;2023-03-14T00:54:40;10.80;99.90
28761;DHT22;15917;50.014;8.352;2023-03-14T00:57:06;10.80;99.90
28761;DHT22;15917;50.014;8.352;2023-03-14T00:59:32;10.80;99.90
28761;DHT22;15917;50.014;8.352;2023-03-14T01:01:57;10.80;99.90
28761;DHT22;15917;50.014;8.352;2023-03-14T01:04:23;10.80;99.90
28761;DHT22;15917;50.014;8.352;2023-03-14T01:06:49;10.90;99.90
28761;DHT22;15917;50.014;8.352;2023-03-14T01:09:14;10.90;99.90
28761;DHT22;15917;50.014;8.352;2023-03-14T01:11:43;11.00;99.90
28761;DHT22;15917;50.014;8.352;2023-03-14T01:14:12;10.90;99.90
28761;DHT22;15917;50.014;8.352;2023-03-14T01:16:37;11.00;99.90
28761;DHT22;15917;50.014;8.352;2023-03-14T01:19:03;10.90;99.90
28761;DHT22;15917;50.014;8.352;2023-03-14T01:21:31;11.00;99.90
28761;DHT22;15917;50.014;8.352;2023-03-14T01:23:59;10.90;99.90
28761;DHT22;15917;50.014;8.352;2023-03-14T01:26:27;10.90;99.90
28761;DHT22;15917;50.014;8.352;2023-03-14T01:28:55;10.90;99.90
28761;DHT22;15917;50.014;8.352;2023-03-14T01:31:22;10.90;99.90
28761;DHT22;15917;50.014;8.352;2023-03-14T01:33:48;10.90;99.90
28761;DHT22;15917;50.014;8.352;2023-03-14T01:36:13;10.90;99.90
28761;DHT22;15917;50.014;8.352;2023-03-14T01:38:41;10.90;99.90
28761;DHT22;15917;50.014;8.352;2023-03-14T01:41:15;10.90;99.90
28761;DHT22;15917;50.014;8.352;2023-03-14T01:43:42;10.80;99.90
28761;DHT22;15917;50.014;8.352;2023-03-14T01:51:24;10.80;99.90
28761;DHT22;15917;50.014;8.352;2023-03-14T01:53:51;10.80;99.90
28761;DHT22;15917;50.014;8.352;2023-03-14T01:56:18;10.80;99.90
28761;DHT22;15917;50.014;8.352;2023-03-14T01:58:47;10.80;99.90
28761;DHT22;15917;50.014;8.352;2023-03-14T02:01:16;10.70;99.90
28761;DHT22;15917;50.014;8.352;2023-03-14T02:03:49;10.70;99.90
28761;DHT22;15917;50.014;8.352;2023-03-14T02:06:17;10.70;99.90
28761;DHT22;15917;50.014;8.352;2023-03-14T02:08:46;10.70;99.90
28761;DHT22;15917;50.014;8.352;2023-03-14T02:11:17;10.80;99.90
28761;DHT22;15917;50.014;8.352;2023-03-14T02:14:05;10.80;99.90
28761;DHT22;15917;50.014;8.352;2023-03-14T02:16:53;10.80;99.90
28761;DHT22;15917;50.014;8.352;2023-03-14T02:22:31;10.80;99.90
28761;DHT22;15917;50.014;8.352;2023-03-14T02:28:09;10.70;99.90
28761;DHT22;15917;50.014;8.352;2023-03-14T02:30:36;10.70;99.90
28761;DHT22;15917;50.014;8.352;2023-03-14T02:35:36;10.70;99.90
28761;DHT22;15917;50.014;8.352;2023-03-14T02:38:23;10.70;99.90
28761;DHT22;15917;50.014;8.352;2023-03-14T02:40:50;10.70;99.90
28761;DHT22;15917;50.014;8.352;2023-03-14T02:43:17;10.70;99.90
28761;DHT22;15917;50.014;8.352;2023-03-14T02:45:50;10.60;99.90
28761;DHT22;15917;50.014;8.352;2023-03-14T02:48:25;10.60;99.90
28761;DHT22;15917;50.014;8.352;2023-03-14T02:50:55;10.70;99.90
28761;DHT22;15917;50.014;8.352;2023-03-14T02:53:25;10.70;99.90
28761;DHT22;15917;50.014;8.352;2023-03-14T02:55:53;10.70;99.90
28761;DHT22;15917;50.014;8.352;2023-03-14T02:58:21;10.60;99.90
28761;DHT22;15917;50.014;8.352;2023-03-14T03:00:52;10.60;99.90
28761;DHT22;15917;50.014;8.352;2023-03-14T03:03:18;10.60;99.90
28761;DHT22;15917;50.014;8.352;2023-03-14T03:05:48;10.60;99.90
28761;DHT22;15917;50.014;8.352;2023-03-14T03:08:13;10.70;99.90
28761;DHT22;15917;50.014;8.352;2023-03-14T03:10:40;10.60;99.90
28761;DHT22;15917;50.014;8.352;2023-03-14T03:13:06;10.60;99.90
28761;DHT22;15917;50.014;8.352;2023-03-14T03:15:32;10.60;99.90
28761;DHT22;15917;50.014;8.352;2023-03-14T03:17:57;10.60;99.90
28761;DHT22;15917;50.014;8.352;2023-03-14T03:20:23;10.70;99.90
28761;DHT22;15917;50.014;8.352;2023-03-14T03:22:49;10.70;99.90
28761;DHT22;15917;50.014;8.352;2023-03-14T03:25:15;10.80;99.90
28761;DHT22;15917;50.014;8.352;2023-03-14T03:27:41;10.80;99.90
28761;DHT22;15917;50.014;8.352;2023-03-14T03:30:08;10.90;99.90
28761;DHT22;15917;50.014;8.352;2023-03-14T03:32:35;10.90;99.90
28761;DHT22;15917;50.014;8.352;2023-03-14T03:35:04;10.90;99.90
28761;DHT22;15917;50.014;8.352;2023-03-14T03:37:33;10.90;99.90
28761;DHT22;15917;50.014;8.352;2023-03-14T03:39:59;10.80;99.90
28761;DHT22;15917;50.014;8.352;2023-03-14T03:42:29;10.80;99.90
28761;DHT22;15917;50.014;8.352;2023-03-14T03:44:55;10.80;99.90
28761;DHT22;15917;50.014;8.352;2023-03-14T03:47:24;10.80;99.90
28761;DHT22;15917;50.014;8.352;2023-03-14T03:49:50;10.80;99.90
28761;DHT22;15917;50.014;8.352;2023-03-14T03:52:16;10.80;99.90
28761;DHT22;15917;50.014;8.352;2023-03-14T03:54:41;10.80;99.90
28761;DHT22;15917;50.014;8.352;2023-03-14T03:57:07;10.80;99.90
28761;DHT22;15917;50.014;8.352;2023-03-14T03:59:33;10.80;99.90
28761;DHT22;15917;50.014;8.352;2023-03-14T04:01:59;10.70;99.90
28761;DHT22;15917;50.014;8.352;2023-03-14T04:04:24;10.70;99.90
28761;DHT22;15917;50.014;8.352;2023-03-14T04:06:50;10.60;99.90
28761;DHT22;15917;50.014;8.352;2023-03-14T04:09:16;10.70;99.90
28761;DHT22;15917;50.014;8.352;2023-03-14T04:11:45;10.80;99.90
28761;DHT22;15917;50.014;8.352;2023-03-14T04:14:22;10.80;99.90
28761;DHT22;15917;50.014;8.352;2023-03-14T04:16:56;10.80;99.90
28761;DHT22;15917;50.014;8.352;2023-03-14T04:19:22;10.80;99.90
28761;DHT22;15917;50.014;8.352;2023-03-14T04:21:49;10.80;99.90
28761;DHT22;15917;50.014;8.352;2023-03-14T04:24:15;10.90;99.90
28761;DHT22;15917;50.014;8.352;2023-03-14T04:26:44;10.80;99.90
28761;DHT22;15917;50.014;8.352;2023-03-14T04:29:10;10.90;99.90
28761;DHT22;15917;50.014;8.352;2023-03-14T04:31:36;10.90;99.90
28761;DHT22;15917;50.014;8.352;2023-03-14T04:34:01;10.80;99.90
28761;DHT22;15917;50.014;8.352;2023-03-14T04:36:34;10.80;99.90
28761;DHT22;15917;50.014;8.352;2023-03-14T04:39:03;10.80;99.90
28761;DHT22;15917;50.014;8.352;2023-03-14T04:41:30;10.80;99.90
28761;DHT22;15917;50.014;8.352;2023-03-14T04:43:56;10.80;99.90
28761;DHT22;15917;50.014;8.352;2023-03-14T04:46:22;10.70;99.90
28761;DHT22;15917;50.014;8.352;2023-03-14T04:48:47;10.70;99.90
28761;DHT22;15917;50.014;8.352;2023-03-14T04:51:15;10.70;99.90
28761;DHT22;15917;50.014;8.352;2023-03-14T04:53:41;10.70;99.90
28761;DHT22;15917;50.014;8.352;2023-03-14T04:56:09;10.70;99.90
28761;DHT22;15917;50.014;8.352;2023-03-14T04:58:38;10.60;99.90
28761;DHT22;15917;50.014;8.352;2023-03-14T05:01:05;10.60;99.90
28761;DHT22;15917;50.014;8.352;2023-03-14T05:03:49;10.60;99.90
28761;DHT22;15917;50.014;8.352;2023-03-14T05:06:30;10.70;99.90
28761;DHT22;15917;50.014;8.352;2023-03-14T05:09:05;10.70;99.90
28761;DHT22;15917;50.014;8.352;2023-03-14T05:12:00;10.70;99.90
28761;DHT22;15917;50.014;8.352;2023-03-14T05:14:34;10.70;99.90
28761;DHT22;15917;50.014;8.352;2023-03-14T05:17:24;10.60;99.90
28761;DHT22;15917;50.014;8.352;2023-03-14T05:20:05;10.70;99.90
28761;DHT22;15917;50.014;8.352;2023-03-14T05:22:57;10.70;99.90
28761;DHT22;15917;50.014;8.352;2023-03-14T05:25:43;10.60;99.90
28761;DHT22;15917;50.014;8.352;2023-03-14T05:28:28;10.70;99.90
28761;DHT22;15917;50.014;8.352;2023-03-14T05:31:08;10.70;99.90
28761;DHT22;15917;50.014;8.352;2023-03-14T05:34:00;10.60;99.90
28761;DHT22;15917;50.014;8.352;2023-03-14T05:36:44;10.70;99.90
28761;DHT22;15917;50.014;8.352;2023-03-14T05:39:28;10.70;99.90
28761;DHT22;15917;50.014;8.352;2023-03-14T05:42:02;10.70;99.90
28761;DHT22;15917;50.014;8.352;2023-03-14T05:44:44;10.70;99.90
28761;DHT22;15917;50.014;8.352;2023-03-14T05:47:30;10.60;99.90
28761;DHT22;15917;50.014;8.352;2023-03-14T05:50:14;10.70;99.90
28761;DHT22;15917;50.014;8.352;2023-03-14T05:53:03;10.60;99.90
28761;DHT22;15917;50.014;8.352;2023-03-14T05:56:07;10.60;99.90
28761;DHT22;15917;50.014;8.352;2023-03-14T05:58:42;10.60;99.90
28761;DHT22;15917;50.014;8.352;2023-03-14T06:01:24;10.60;99.90
28761;DHT22;15917;50.014;8.352;2023-03-14T06:04:15;10.60;99.90
28761;DHT22;15917;50.014;8.352;2023-03-14T06:06:43;10.60;99.90
28761;DHT22;15917;50.014;8.352;2023-03-14T06:09:10;10.60;99.90
28761;DHT22;15917;50.014;8.352;2023-03-14T06:11:38;10.60;99.90
28761;DHT22;15917;50.014;8.352;2023-03-14T06:14:05;10.60;99.90
28761;DHT22;15917;50.014;8.352;2023-03-14T06:16:31;10.60;99.90
28761;DHT22;15917;50.014;8.352;2023-03-14T06:18:58;10.60;99.90
28761;DHT22;15917;50.014;8.352;2023-03-14T06:21:25;10.50;99.90
28761;DHT22;15917;50.014;8.352;2023-03-14T06:23:51;10.50;99.90
28761;DHT22;15917;50.014;8.352;2023-03-14T06:26:17;10.50;99.90
28761;DHT22;15917;50.014;8.352;2023-03-14T06:28:43;10.50;99.90
28761;DHT22;15917;50.014;8.352;2023-03-14T06:31:09;10.50;99.90
28761;DHT22;15917;50.014;8.352;2023-03-14T06:33:42;10.50;99.90
28761;DHT22;15917;50.014;8.352;2023-03-14T06:36:09;10.50;99.90
28761;DHT22;15917;50.014;8.352;2023-03-14T06:38:35;10.50;99.90
28761;DHT22;15917;50.014;8.352;2023-03-14T06:41:07;10.50;99.90
28761;DHT22;15917;50.014;8.352;2023-03-14T06:43:41;10.60;99.90
28761;DHT22;15917;50.014;8.352;2023-03-14T06:46:08;10.60;99.90
28761;DHT22;15917;50.014;8.352;2023-03-14T06:48:35;10.60;99.90
28761;DHT22;15917;50.014;8.352;2023-03-14T06:51:01;10.60;99.90
28761;DHT22;15917;50.014;8.352;2023-03-14T06:53:27;10.60;99.90
28761;DHT22;15917;50.014;8.352;2023-03-14T06:55:53;10.60;99.90
28761;DHT22;15917;50.014;8.352;2023-03-14T06:58:19;10.60;99.90
28761;DHT22;15917;50.014;8.352;2023-03-14T07:00:45;10.60;99.90
28761;DHT22;15917;50.014;8.352;2023-03-14T07:03:15;10.70;99.90
28761;DHT22;15917;50.014;8.352;2023-03-14T07:05:44;10.70;99.90
28761;DHT22;15917;50.014;8.352;2023-03-14T07:08:09;10.70;99.90
28761;DHT22;15917;50.014;8.352;2023-03-14T07:10:35;10.70;99.90
28761;DHT22;15917;50.014;8.352;2023-03-14T07:13:01;10.70;99.90
28761;DHT22;15917;50.014;8.352;2023-03-14T07:15:31;10.70;99.90
28761;DHT22;15917;50.014;8.352;2023-03-14T07:18:02;10.70;99.90
28761;DHT22;15917;50.014;8.352;2023-03-14T07:20:28;10.70;99.90
28761;DHT22;15917;50.014;8.352;2023-03-14T07:22:55;10.70;99.90
28761;DHT22;15917;50.014;8.352;2023-03-14T07:25:32;10.70;99.90
28761;DHT22;15917;50.014;8.352;2023-03-14T07:27:58;10.70;99.90
28761;DHT22;15917;50.014;8.352;2023-03-14T07:30:24;10.70;99.90
28761;DHT22;15917;50.014;8.352;2023-03-14T07:32:50;10.70;99.90
28761;DHT22;15917;50.014;8.352;2023-03-14T07:35:16;10.70;99.90
28761;DHT22;15917;50.014;8.352;2023-03-14T07:37:41;10.70;99.90
28761;DHT22;15917;50.014;8.352;2023-03-14T07:40:08;10.70;99.90
28761;DHT22;15917;50.014;8.352;2023-03-14T07:42:36;10.70;99.90
28761;DHT22;15917;50.014;8.352;2023-03-14T07:45:22;10.80;99.90
28761;DHT22;15917;50.014;8.352;2023-03-14T07:47:47;10.70;99.90
28761;DHT22;15917;50.014;8.352;2023-03-14T07:50:13;10.70;99.90
28761;DHT22;15917;50.014;8.352;2023-03-14T07:52:38;10.70;99.90
28761;DHT22;15917;50.014;8.352;2023-03-14T07:55:04;10.70;99.90
28761;DHT22;15917;50.014;8.352;2023-03-14T07:57:31;10.70;99.90
28761;DHT22;15917;50.014;8.352;2023-03-14T07:59:56;10.70;99.90
28761;DHT22;15917;50.014;8.352;2023-03-14T08:02:22;10.70;99.90
28761;DHT22;15917;50.014;8.352;2023-03-14T08:04:49;10.80;99.90
28761;DHT22;15917;50.014;8.352;2023-03-14T08:07:15;10.70;99.90
28761;DHT22;15917;50.014;8.352;2023-03-14T08:09:41;10.70;99.90
28761;DHT22;15917;50.014;8.352;2023-03-14T08:12:07;10.70;99.90
28761;DHT22;15917;50.014;8.352;2023-03-14T08:14:33;10.80;99.90
28761;DHT22;15917;50.014;8.352;2023-03-14T08:16:58;10.80;99.90
28761;DHT22;15917;50.014;8.352;2023-03-14T08:19:24;10.80;99.90
28761;DHT22;15917;50.014;8.352;2023-03-14T08:21:50;10.80;99.90
28761;DHT22;15917;50.014;8.352;2023-03-14T08:24:15;10.80;99.90
28761;DHT22;15917;50.014;8.352;2023-03-14T08:26:41;10.80;99.90
28761;DHT22;15917;50.014;8.352;2023-03-14T08:29:07;10.80;99.90
28761;DHT22;15917;50.014;8.352;2023-03-14T08:31:34;10.90;99.90
28761;DHT22;15917;50.014;8.352;2023-03-14T08:34:00;10.90;99.90
28761;DHT22;15917;50.014;8.352;2023-03-14T08:36:27;11.00;99.90
28761;DHT22;15917;50.014;8.352;2023-03-14T08:38:52;11.10;99.90
28761;DHT22;15917;50.014;8.352;2023-03-14T08:41:18;11.30;99.90
28761;DHT22;15917;50.014;8.352;2023-03-14T08:43:44;11.50;99.90
28761;DHT22;15917;50.014;8.352;2023-03-14T08:46:09;11.50;99.90
28761;DHT22;15917;50.014;8.352;2023-03-14T08:48:35;11.40;99.90
28761;DHT22;15917;50.014;8.352;2023-03-14T08:51:05;11.50;99.90
28761;DHT22;15917;50.014;8.352;2023-03-14T08:53:31;11.50;99.90
28761;DHT22;15917;50.014;8.352;2023-03-14T08:55:57;11.50;99.90
28761;DHT22;15917;50.014;8.352;2023-03-14T08:58:23;11.60;99.90
28761;DHT22;15917;50.014;8.352;2023-03-14T09:00:49;11.60;99.90
28761;DHT22;15917;50.014;8.352;2023-03-14T09:03:15;11.60;99.90
28761;DHT22;15917;50.014;8.352;2023-03-14T09:05:40;11.70;99.90
28761;DHT22;15917;50.014;8.352;2023-03-14T09:08:06;11.60;99.90
28761;DHT22;15917;50.014;8.352;2023-03-14T09:10:32;11.60;99.90
28761;DHT22;15917;50.014;8.352;2023-03-14T09:12:57;11.50;99.90
28761;DHT22;15917;50.014;8.352;2023-03-14T09:15:24;11.50;99.90
28761;DHT22;15917;50.014;8.352;2023-03-14T09:17:49;11.50;99.90
28761;DHT22;15917;50.014;8.352;2023-03-14T09:20:15;11.50;99.90
28761;DHT22;15917;50.014;8.352;2023-03-14T09:22:41;11.40;99.90
28761;DHT22;15917;50.014;8.352;2023-03-14T09:25:07;11.40;99.90
28761;DHT22;15917;50.014;8.352;2023-03-14T09:27:33;11.30;99.90
28761;DHT22;15917;50.014;8.352;2023-03-14T09:29:59;11.30;99.90
28761;DHT22;15917;50.014;8.352;2023-03-14T09:32:24;11.30;99.90
28761;DHT22;15917;50.014;8.352;2023-03-14T09:34:50;11.30;99.90
28761;DHT22;15917;50.014;8.352;2023-03-14T09:37:15;11.30;99.90
28761;DHT22;15917;50.014;8.352;2023-03-14T09:39:42;11.30;99.90
28761;DHT22;15917;50.014;8.352;2023-03-14T09:42:10;11.30;99.90
28761;DHT22;15917;50.014;8.352;2023-03-14T09:44:39;11.30;99.90
28761;DHT22;15917;50.014;8.352;2023-03-14T09:47:11;11.30;99.90
28761;DHT22;15917;50.014;8.352;2023-03-14T09:49:39;11.30;99.90
28761;DHT22;15917;50.014;8.352;2023-03-14T09:52:35;11.30;99.90
28761;DHT22;15917;50.014;8.352;2023-03-14T09:55:10;11.30;99.90
28761;DHT22;15917;50.014;8.352;2023-03-14T09:57:37;11.40;99.90
28761;DHT22;15917;50.014;8.352;2023-03-14T10:00:11;11.40;99.90
28761;DHT22;15917;50.014;8.352;2023-03-14T10:02:42;11.40;99.90
28761;DHT22;15917;50.014;8.352;2023-03-14T10:05:19;11.40;99.90
28761;DHT22;15917;50.014;8.352;2023-03-14T10:07:45;11.50;99.90
28761;DHT22;15917;50.014;8.352;2023-03-14T10:10:15;11.60;99.90
28761;DHT22;15917;50.014;8.352;2023-03-14T10:12:46;11.70;99.90
28761;DHT22;15917;50.014;8.352;2023-03-14T10:15:14;11.70;99.90
28761;DHT22;15917;50.014;8.352;2023-03-14T10:17:48;11.70;99.90
28761;DHT22;15917;50.014;8.352;2023-03-14T10:22:53;11.80;99.90
28761;DHT22;15917;50.014;8.352;2023-03-14T10:25:46;11.80;99.90
28761;DHT22;15917;50.014;8.352;2023-03-14T10:28:24;11.80;99.90
28761;DHT22;15917;50.014;8.352;2023-03-14T10:30:50;11.80;99.90
28761;DHT22;15917;50.014;8.352;2023-03-14T10:33:23;11.80;99.90
28761;DHT22;15917;50.014;8.352;2023-03-14T10:35:58;11.80;99.90
28761;DHT22;15917;50.014;8.352;2023-03-14T10:38:33;11.70;99.90
28761;DHT22;15917;50.014;8.352;2023-03-14T10:40:59;11.70;99.90
28761;DHT22;15917;50.014;8.352;2023-03-14T10:43:33;11.70;99.90
28761;DHT22;15917;50.014;8.352;2023-03-14T10:46:08;11.70;99.90
28761;DHT22;15917;50.014;8.352;2023-03-14T10:48:54;11.70;99.90
28761;DHT22;15917;50.014;8.352;2023-03-14T10:54:00;11.70;99.90
28761;DHT22;15917;50.014;8.352;2023-03-14T10:56:34;11.70;99.90
28761;DHT22;15917;50.014;8.352;2023-03-14T10:59:00;11.70;99.90
28761;DHT22;15917;50.014;8.352;2023-03-14T11:01:32;11.70;99.90
28761;DHT22;15917;50.014;8.352;2023-03-14T11:04:15;11.70;99.90
28761;DHT22;15917;50.014;8.352;2023-03-14T11:07:15;11.70;99.90
28761;DHT22;15917;50.014;8.352;2023-03-14T11:12:34;11.70;99.90
28761;DHT22;15917;50.014;8.352;2023-03-14T11:15:17;11.80;99.90
28761;DHT22;15917;50.014;8.352;2023-03-14T11:20:41;11.80;99.90
28761;DHT22;15917;50.014;8.352;2023-03-14T11:23:13;11.80;99.90
28761;DHT22;15917;50.014;8.352;2023-03-14T11:26:07;11.80;99.90
28761;DHT22;15917;50.014;8.352;2023-03-14T11:28:38;11.90;99.90
28761;DHT22;15917;50.014;8.352;2023-03-14T11:33:38;11.90;99.90
28761;DHT22;15917;50.014;8.352;2023-03-14T11:36:10;12.00;99.90
28761;DHT22;15917;50.014;8.352;2023-03-14T11:38:48;12.00;99.90
28761;DHT22;15917;50.014;8.352;2023-03-14T11:41:33;12.10;99.90
28761;DHT22;15917;50.014;8.352;2023-03-14T11:44:04;12.20;99.90
28761;DHT22;15917;50.014;8.352;2023-03-14T11:46:38;12.20;99.90
28761;DHT22;15917;50.014;8.352;2023-03-14T11:49:30;12.20;99.90
28761;DHT22;15917;50.014;8.352;2023-03-14T11:52:02;12.20;99.90
28761;DHT22;15917;50.014;8.352;2023-03-14T11:57:19;12.00;99.90
28761;DHT22;15917;50.014;8.352;2023-03-14T12:02:33;12.00;99.90
28761;DHT22;15917;50.014;8.352;2023-03-14T12:05:43;11.80;99.90
28761;DHT22;15917;50.014;8.352;2023-03-14T12:08:29;11.80;99.90
28761;DHT22;15917;50.014;8.352;2023-03-14T12:11:02;12.20;99.90
28761;DHT22;15917;50.014;8.352;2023-03-14T12:13:33;12.40;99.90
28761;DHT22;15917;50.014;8.352;2023-03-14T12:16:19;12.10;99.90
28761;DHT22;15917;50.014;8.352;2023-03-14T12:18:46;12.00;99.90
28761;DHT22;15917;50.014;8.352;2023-03-14T12:21:12;12.00;99.90
28761;DHT22;15917;50.014;8.352;2023-03-14T12:23:55;12.00;99.90
28761;DHT22;15917;50.014;8.352;2023-03-14T12:26:24;12.10;99.90
28761;DHT22;15917;50.014;8.352;2023-03-14T12:45:28;11.80;99.90
28761;DHT22;15917;50.014;8.352;2023-03-14T12:48:02;11.70;99.90
28761;DHT22;15917;50.014;8.352;2023-03-14T12:50:33;11.70;99.90
28761;DHT22;15917;50.014;8.352;2023-03-14T12:53:05;11.70;99.90
28761;DHT22;15917;50.014;8.352;2023-03-14T12:55:39;11.60;99.90
28761;DHT22;15917;50.014;8.352;2023-03-14T13:00:39;11.50;99.90
28761;DHT22;15917;50.014;8.352;2023-03-14T13:05:59;11.30;99.90
28761;DHT22;15917;50.014;8.352;2023-03-14T13:08:40;11.30;99.90
28761;DHT22;15917;50.014;8.352;2023-03-14T13:11:19;11.30;99.90
28761;DHT22;15917;50.014;8.352;2023-03-14T13:13:48;11.40;99.90
28761;DHT22;15917;50.014;8.352;2023-03-14T13:16:18;11.20;99.90
28761;DHT22;15917;50.014;8.352;2023-03-14T13:19:10;10.70;99.90
28761;DHT22;15917;50.014;8.352;2023-03-14T13:21:39;10.30;99.90
28761;DHT22;15917;50.014;8.352;2023-03-14T13:24:17;10.00;99.90
28761;DHT22;15917;50.014;8.352;2023-03-14T13:26:44;9.90;99.90
28761;DHT22;15917;50.014;8.352;2023-03-14T13:29:20;9.90;99.90
28761;DHT22;15917;50.014;8.352;2023-03-14T13:31:49;10.00;99.90
28761;DHT22;15917;50.014;8.352;2023-03-14T13:34:14;10.20;99.90
28761;DHT22;15917;50.014;8.352;2023-03-14T13:36:40;10.20;99.90
28761;DHT22;15917;50.014;8.352;2023-03-14T13:39:20;10.30;99.90
28761;DHT22;15917;50.014;8.352;2023-03-14T13:41:53;10.40;99.90
28761;DHT22;15917;50.014;8.352;2023-03-14T13:44:31;10.70;99.90
28761;DHT22;15917;50.014;8.352;2023-03-14T13:46:58;10.80;99.90
28761;DHT22;15917;50.014;8.352;2023-03-14T13:49:25;10.80;99.90
28761;DHT22;15917;50.014;8.352;2023-03-14T13:51:51;11.10;99.90
28761;DHT22;15917;50.014;8.352;2023-03-14T13:54:19;11.70;99.90
28761;DHT22;15917;50.014;8.352;2023-03-14T13:56:45;12.30;99.90
28761;DHT22;15917;50.014;8.352;2023-03-14T13:59:25;12.60;99.90
28761;DHT22;15917;50.014;8.352;2023-03-14T14:01:52;12.50;99.90
28761;DHT22;15917;50.014;8.352;2023-03-14T14:04:20;12.00;99.90
28761;DHT22;15917;50.014;8.352;2023-03-14T14:06:53;11.80;99.90
28761;DHT22;15917;50.014;8.352;2023-03-14T14:09:25;11.50;99.90
28761;DHT22;15917;50.014;8.352;2023-03-14T14:12:07;11.80;99.90
28761;DHT22;15917;50.014;8.352;2023-03-14T14:14:53;11.90;99.90
28761;DHT22;15917;50.014;8.352;2023-03-14T14:20:12;13.70;99.90
28761;DHT22;15917;50.014;8.352;2023-03-14T14:22:41;13.70;99.90
28761;DHT22;15917;50.014;8.352;2023-03-14T14:25:12;13.20;99.90
28761;DHT22;15917;50.014;8.352;2023-03-14T14:27:42;12.60;99.90
28761;DHT22;15917;50.014;8.352;2023-03-14T14:32:42;11.50;99.90
28761;DHT22;15917;50.014;8.352;2023-03-14T14:35:35;11.20;99.90
28761;DHT22;15917;50.014;8.352;2023-03-14T14:38:01;10.90;99.90
28761;DHT22;15917;50.014;8.352;2023-03-14T14:40:29;10.60;99.90
28761;DHT22;15917;50.014;8.352;2023-03-14T14:43:02;10.50;99.90
28761;DHT22;15917;50.014;8.352;2023-03-14T14:45:28;10.30;99.90
28761;DHT22;15917;50.014;8.352;2023-03-14T14:48:05;10.30;99.90
28761;DHT22;15917;50.014;8.352;2023-03-14T14:55:45;10.00;99.90
28761;DHT22;15917;50.014;8.352;2023-03-14T14:58:29;9.80;99.90
28761;DHT22;15917;50.014;8.352;2023-03-14T15:00:56;9.50;99.90
28761;DHT22;15917;50.014;8.352;2023-03-14T15:03:26;9.30;99.90
28761;DHT22;15917;50.014;8.352;2023-03-14T15:05:53;9.20;99.90
28761;DHT22;15917;50.014;8.352;2023-03-14T15:08:20;9.10;99.90
28761;DHT22;15917;50.014;8.352;2023-03-14T15:10:46;9.00;99.90
28761;DHT22;15917;50.014;8.352;2023-03-14T15:13:12;8.90;99.90
28761;DHT22;15917;50.014;8.352;2023-03-14T15:15:37;8.70;99.90
28761;DHT22;15917;50.014;8.352;2023-03-14T15:18:12;8.60;99.90
28761;DHT22;15917;50.014;8.352;2023-03-14T15:20:39;8.50;99.90
28761;DHT22;15917;50.014;8.352;2023-03-14T15:23:16;8.60;99.90
28761;DHT22;15917;50.014;8.352;2023-03-14T15:25:42;8.50;99.90
28761;DHT22;15917;50.014;8.352;2023-03-14T15:28:17;8.40;99.90
28761;DHT22;15917;50.014;8.352;2023-03-14T15:30:43;8.40;99.90
28761;DHT22;15917;50.014;8.352;2023-03-14T15:33:08;8.50;99.90
28761;DHT22;15917;50.014;8.352;2023-03-14T15:35:38;8.40;99.90
28761;DHT22;15917;50.014;8.352;2023-03-14T15:38:04;8.50;99.90
28761;DHT22;15917;50.014;8.352;2023-03-14T15:40:30;8.40;99.90
28761;DHT22;15917;50.014;8.352;2023-03-14T15:42:55;8.30;99.90
28761;DHT22;15917;50.014;8.352;2023-03-14T15:45:21;8.30;99.90
28761;DHT22;15917;50.014;8.352;2023-03-14T15:47:47;8.20;99.90
28761;DHT22;15917;50.014;8.352;2023-03-14T15:50:12;8.10;99.90
28761;DHT22;15917;50.014;8.352;2023-03-14T15:52:38;8.10;99.90
28761;DHT22;15917;50.014;8.352;2023-03-14T15:55:04;8.10;99.90
28761;DHT22;15917;50.014;8.352;2023-03-14T15:57:30;8.00;99.90
28761;DHT22;15917;50.014;8.352;2023-03-14T15:59:55;8.00;99.90
28761;DHT22;15917;50.014;8.352;2023-03-14T16:02:24;7.90;99.90
28761;DHT22;15917;50.014;8.352;2023-03-14T16:04:49;7.90;99.90
28761;DHT22;15917;50.014;8.352;2023-03-14T16:07:15;7.90;99.90
28761;DHT22;15917;50.014;8.352;2023-03-14T16:09:41;7.90;99.90
28761;DHT22;15917;50.014;8.352;2023-03-14T16:12:07;7.90;99.90
28761;DHT22;15917;50.014;8.352;2023-03-14T16:14:34;7.90;99.90
28761;DHT22;15917;50.014;8.352;2023-03-14T16:16:59;7.90;99.90
28761;DHT22;15917;50.014;8.352;2023-03-14T16:19:25;7.90;99.90
28761;DHT22;15917;50.014;8.352;2023-03-14T16:21:52;7.80;99.90
28761;DHT22;15917;50.014;8.352;2023-03-14T16:24:18;7.80;99.90
28761;DHT22;15917;50.014;8.352;2023-03-14T16:26:43;7.70;99.90
28761;DHT22;15917;50.014;8.352;2023-03-14T16:29:10;7.70;99.90
28761;DHT22;15917;50.014;8.352;2023-03-14T16:31:36;7.70;99.90
28761;DHT22;15917;50.014;8.352;2023-03-14T16:34:08;7.70;99.90
28761;DHT22;15917;50.014;8.352;2023-03-14T16:36:34;7.70;99.90
28761;DHT22;15917;50.014;8.352;2023-03-14T16:38:59;7.70;99.90
28761;DHT22;15917;50.014;8.352;2023-03-14T16:41:25;7.60;99.90
28761;DHT22;15917;50.014;8.352;2023-03-14T16:43:58;7.60;99.90
28761;DHT22;15917;50.014;8.352;2023-03-14T16:46:25;7.60;99.90
28761;DHT22;15917;50.014;8.352;2023-03-14T16:48:52;7.50;99.90
28761;DHT22;15917;50.014;8.352;2023-03-14T16:51:18;7.50;99.90
28761;DHT22;15917;50.014;8.352;2023-03-14T16:53:44;7.50;99.90
28761;DHT22;15917;50.014;8.352;2023-03-14T16:56:10;7.40;99.90